Strona główna
METAR-TAF:

METAR-TAF

Lotnisko :

Port lotniczy Honiara

Honiara, Guadalcanal, Wyspy Salomona

Szerokość geograficzna: 09-25S, Długość geograficzna: 160-03E, wysokość: 8 m

Aktualna obserwacja pogody

Raport powstał 58 minut temu, godzina 00:00 UTC
Wiatr 4 kt od północ
Temperatura 30°C
Wilgotność 70%
Ciśnienie 1010 hPa
Widzialność 10 km lub więcej
Mało chmury na wysokości 1800 ft
Rozproszone chmury na wysokości 30000 ft

METAR: AGGH 200000Z 36004KT 9999 FEW018 SCT300 30/24 Q1010

czas: 11:58 (00:58 UTC)

Prognoza

Raport powstał 1 godzina i 48 minut temu, godzina 23:10 UTC
Prognoza ważna od 20 godzina 00 UTC do 20 godzina 24 UTC
Wiatr 10 kt od wschód
Widzialność 10 km lub więcej
Rozproszone chmury na wysokości 2000 ft
Prawdopodobieństwo 30%
pomiędzy IN i TE UTC
Widzialność: 1009 m
Przerywane chmury na wysokości 1800 ft
Mało chmury na wysokości 1900 ft, Cumulonimbus.

TAF: AGGH 192310Z 2000/2024 09010KT 9999 SCT020 PROB30 INTER 2000/2006 5000 TSSH BKN018 FEW019CB T 30 31 29 27 Q 1010 1008 1007 1009

Obserwacja i prognoza pogody dla ponad 4000 lotnisk (raport METAR i TAF).

Dostępne stacje oznaczono żółtymi i czerwonymi punktami na mapie.

Najedź kursorem aby zobaczyć nazwę stacji.

Kliknij aby zobaczyć obserwacje i prognozy pogody.

Aby zmienić mapę: kliknij na zielony przycisk z czarnym krzyżykiem, aby powiększyć; na zielony przycisk z myślnikiem, aby pomniejszyć; na zielone strzałki, aby przejść do map sąsiednich.


METAR-TAF: